createdAt,value
2022-09-14T00:00:36.607Z,21.74
2022-09-14T00:03:03.300Z,21.70
2022-09-14T00:05:29.875Z,21.67
2022-09-14T00:07:56.487Z,21.67
2022-09-14T00:10:23.351Z,21.67
2022-09-14T00:12:49.849Z,21.62
2022-09-14T00:15:16.461Z,21.56
2022-09-14T00:17:43.088Z,21.45
2022-09-14T00:20:10.085Z,21.29
2022-09-14T00:22:36.679Z,21.15
2022-09-14T00:25:03.773Z,21.06
2022-09-14T00:27:30.435Z,21.02
2022-09-14T00:29:56.956Z,21.00
2022-09-14T00:32:23.487Z,20.97
2022-09-14T00:34:50.116Z,20.94
2022-09-14T00:37:16.695Z,20.88
2022-09-14T00:39:43.385Z,20.85
2022-09-14T00:42:15.803Z,20.85
2022-09-14T00:44:42.274Z,20.85
2022-09-14T00:47:08.954Z,20.81
2022-09-14T00:49:39.864Z,20.75
2022-09-14T00:52:21.893Z,20.72
2022-09-14T00:54:56.621Z,20.73
2022-09-14T00:57:24.663Z,20.71
2022-09-14T00:59:53.098Z,20.69
2022-09-14T01:02:22.266Z,20.69
2022-09-14T01:04:50.235Z,20.69
2022-09-14T01:07:43.250Z,20.64
2022-09-14T01:10:10.148Z,20.65
2022-09-14T01:13:06.621Z,20.61
2022-09-14T01:15:45.215Z,20.60
2022-09-14T01:18:17.603Z,20.57
2022-09-14T01:20:59.363Z,20.56
2022-09-14T01:23:49.106Z,20.50
2022-09-14T01:26:39.879Z,20.45
2022-09-14T01:29:12.391Z,20.44
2022-09-14T01:31:50.300Z,20.43
2022-09-14T01:34:34.159Z,20.42
2022-09-14T01:37:22.433Z,20.39
2022-09-14T01:39:57.722Z,20.43
2022-09-14T01:42:27.435Z,20.43
2022-09-14T01:45:01.711Z,20.40
2022-09-14T01:47:42.888Z,20.33
2022-09-14T01:50:24.813Z,20.30
2022-09-14T01:53:14.063Z,20.26
2022-09-14T01:55:43.921Z,20.28
2022-09-14T01:58:31.403Z,20.26
2022-09-14T02:01:02.401Z,20.26
2022-09-14T02:03:35.740Z,20.25
2022-09-14T02:06:09.476Z,20.22
2022-09-14T02:08:36.302Z,20.22
2022-09-14T02:11:02.963Z,20.21
2022-09-14T02:13:29.788Z,20.19
2022-09-14T02:15:56.506Z,20.18
2022-09-14T02:18:23.131Z,20.18
2022-09-14T02:21:07.163Z,20.15
2022-09-14T02:23:35.743Z,20.17
2022-09-14T02:26:02.272Z,20.17
2022-09-14T02:28:28.845Z,20.19
2022-09-14T02:31:25.708Z,20.22
2022-09-14T02:34:13.914Z,20.22
2022-09-14T02:36:51.710Z,20.14
2022-09-14T02:39:35.411Z,20.12
2022-09-14T02:42:20.146Z,20.10
2022-09-14T02:44:59.043Z,20.05
2022-09-14T02:47:40.695Z,20.02
2022-09-14T02:50:35.105Z,19.97
2022-09-14T02:53:14.331Z,19.97
2022-09-14T02:55:46.919Z,19.98
2022-09-14T02:58:14.970Z,20.00
2022-09-14T03:00:50.753Z,19.99
2022-09-14T03:03:19.947Z,20.01
2022-09-14T03:05:47.596Z,20.00
2022-09-14T03:08:14.799Z,19.97
2022-09-14T03:10:44.817Z,19.95
2022-09-14T03:13:12.413Z,19.95
2022-09-14T03:15:39.208Z,19.96
2022-09-14T03:18:10.005Z,19.97
2022-09-14T03:20:38.924Z,19.98
2022-09-14T03:23:07.217Z,19.98
2022-09-14T03:25:40.472Z,19.91
2022-09-14T03:28:07.859Z,19.88
2022-09-14T03:30:35.420Z,19.84
2022-09-14T03:33:02.172Z,19.80
2022-09-14T03:35:31.429Z,19.71
2022-09-14T03:37:59.480Z,19.63
2022-09-14T03:40:27.619Z,19.56
2022-09-14T03:42:54.462Z,19.54
2022-09-14T03:45:21.848Z,19.54
2022-09-14T03:47:49.031Z,19.53
2022-09-14T03:50:17.201Z,19.53
2022-09-14T03:52:43.942Z,19.52
2022-09-14T03:55:10.799Z,19.52
2022-09-14T03:57:37.597Z,19.54
2022-09-14T04:00:06.699Z,19.53
2022-09-14T04:02:33.330Z,19.50
2022-09-14T04:04:59.914Z,19.52
2022-09-14T04:07:26.686Z,19.52
2022-09-14T04:09:53.227Z,19.48
2022-09-14T04:12:19.775Z,19.43
2022-09-14T04:14:46.309Z,19.41
2022-09-14T04:17:12.852Z,19.41
2022-09-14T04:19:40.962Z,19.38
2022-09-14T04:22:07.877Z,19.35
2022-09-14T04:24:34.659Z,19.29
2022-09-14T04:27:01.161Z,19.23
2022-09-14T04:29:30.474Z,19.17
2022-09-14T04:31:57.418Z,19.15
2022-09-14T04:34:23.983Z,19.11
2022-09-14T04:36:50.687Z,19.12
2022-09-14T04:39:17.307Z,19.12
2022-09-14T04:41:44.084Z,19.11
2022-09-14T04:44:10.823Z,19.10
2022-09-14T04:46:43.619Z,19.09
2022-09-14T04:49:13.067Z,19.11
2022-09-14T04:51:39.711Z,19.09
2022-09-14T04:54:07.243Z,19.10
2022-09-14T04:56:36.001Z,19.13
2022-09-14T04:59:04.423Z,19.18
2022-09-14T05:01:34.517Z,19.38
2022-09-14T05:04:01.352Z,19.79
2022-09-14T05:06:31.074Z,20.10
2022-09-14T05:08:59.167Z,20.33
2022-09-14T05:11:29.323Z,20.54
2022-09-14T05:13:57.237Z,20.73
2022-09-14T05:16:25.400Z,20.85
2022-09-14T05:18:55.048Z,20.95
2022-09-14T05:21:22.956Z,21.07
2022-09-14T05:23:57.967Z,21.20
2022-09-14T05:26:26.827Z,21.32
2022-09-14T05:28:56.826Z,21.41
2022-09-14T05:31:25.174Z,21.49
2022-09-14T05:33:52.253Z,21.56
2022-09-14T05:36:19.629Z,21.62
2022-09-14T05:38:46.624Z,21.70
2022-09-14T05:41:14.519Z,21.73
2022-09-14T05:43:42.081Z,21.77
2022-09-14T05:46:12.357Z,21.79
2022-09-14T05:48:40.250Z,21.79
2022-09-14T05:51:10.814Z,21.78
2022-09-14T05:53:37.503Z,21.77
2022-09-14T05:56:09.513Z,21.77
2022-09-14T05:58:37.256Z,21.77
2022-09-14T06:01:16.061Z,21.76
2022-09-14T06:03:43.764Z,21.74
2022-09-14T06:06:12.361Z,21.76
2022-09-14T06:08:39.479Z,21.79
2022-09-14T06:11:07.504Z,21.81
2022-09-14T06:13:34.520Z,21.87
2022-09-14T06:16:09.758Z,21.90
2022-09-14T06:18:37.768Z,21.94
2022-09-14T06:21:05.574Z,21.94
2022-09-14T06:23:33.284Z,21.97
2022-09-14T06:26:02.566Z,21.98
2022-09-14T06:28:30.311Z,21.96
2022-09-14T06:30:57.755Z,21.97
2022-09-14T06:33:25.022Z,21.94
2022-09-14T06:36:12.908Z,21.90
2022-09-14T06:38:40.512Z,22.00
2022-09-14T06:41:09.484Z,22.10
2022-09-14T06:43:41.255Z,22.16
2022-09-14T06:46:23.604Z,22.18
2022-09-14T06:48:56.054Z,22.24
2022-09-14T06:51:32.777Z,22.19
2022-09-14T06:54:00.971Z,22.21
2022-09-14T06:56:38.950Z,22.16
2022-09-14T06:59:07.265Z,22.06
2022-09-14T07:01:34.479Z,21.98
2022-09-14T07:04:01.671Z,21.88
2022-09-14T07:06:31.018Z,21.78
2022-09-14T07:08:58.170Z,21.84
2022-09-14T07:11:27.104Z,21.94
2022-09-14T07:13:57.319Z,22.00
2022-09-14T07:16:26.465Z,22.14
2022-09-14T07:18:58.086Z,22.28
2022-09-14T07:21:25.565Z,22.37
2022-09-14T07:23:52.528Z,22.46
2022-09-14T07:26:25.002Z,22.52
2022-09-14T07:28:55.517Z,22.45
2022-09-14T07:31:28.213Z,22.35
2022-09-14T07:33:56.840Z,22.42
2022-09-14T07:36:25.179Z,22.47
2022-09-14T07:38:53.442Z,22.61
2022-09-14T07:41:25.599Z,22.72
2022-09-14T07:43:52.598Z,22.72
2022-09-14T07:46:20.281Z,22.83
2022-09-14T07:48:48.145Z,22.93
2022-09-14T07:51:14.952Z,23.07
2022-09-14T07:53:43.252Z,23.18
2022-09-14T07:56:11.583Z,23.32
2022-09-14T07:58:38.495Z,23.48
2022-09-14T08:01:12.152Z,23.64
2022-09-14T08:03:40.745Z,23.74
2022-09-14T08:06:10.894Z,23.75
2022-09-14T08:08:42.060Z,23.72
2022-09-14T08:11:42.848Z,23.71
2022-09-14T08:14:11.623Z,23.70
2022-09-14T08:16:39.143Z,23.73
2022-09-14T08:19:10.825Z,23.72
2022-09-14T08:21:37.389Z,23.70
2022-09-14T08:24:04.862Z,23.71
2022-09-14T08:26:31.899Z,23.71
2022-09-14T08:29:00.530Z,23.72
2022-09-14T08:31:28.535Z,23.72
2022-09-14T08:33:56.526Z,23.75
2022-09-14T08:36:24.529Z,23.79
2022-09-14T08:38:51.503Z,23.80
2022-09-14T08:41:55.236Z,23.75
2022-09-14T08:44:58.949Z,23.81
2022-09-14T08:47:32.339Z,23.93
2022-09-14T08:50:06.139Z,23.98
2022-09-14T08:52:39.304Z,24.03
2022-09-14T08:55:24.525Z,24.16
2022-09-14T08:58:01.543Z,24.22
2022-09-14T09:00:55.508Z,24.16
2022-09-14T09:03:45.489Z,24.04
2022-09-14T09:06:22.484Z,23.89
2022-09-14T09:09:02.769Z,23.79
2022-09-14T09:11:46.698Z,23.71
2022-09-14T09:14:31.196Z,23.63
2022-09-14T09:17:01.643Z,23.62
2022-09-14T09:19:41.382Z,23.60
2022-09-14T09:22:15.098Z,23.63
2022-09-14T09:24:50.542Z,23.65
2022-09-14T09:27:17.144Z,23.69
2022-09-14T09:29:44.123Z,23.74
2022-09-14T09:32:25.093Z,23.73
2022-09-14T09:34:51.991Z,23.80
2022-09-14T09:37:23.367Z,23.87
2022-09-14T09:39:50.770Z,23.90
2022-09-14T09:42:21.863Z,23.89
2022-09-14T09:45:04.074Z,23.85
2022-09-14T09:47:35.529Z,23.88
2022-09-14T09:50:06.658Z,23.92
2022-09-14T09:52:34.730Z,24.01
2022-09-14T09:55:03.012Z,24.09
2022-09-14T09:57:33.013Z,24.12
2022-09-14T10:00:11.715Z,24.14
2022-09-14T10:02:38.445Z,24.18
2022-09-14T10:05:11.151Z,24.28
2022-09-14T10:07:50.916Z,24.44
2022-09-14T10:10:20.387Z,24.68
2022-09-14T10:12:55.834Z,24.90
2022-09-14T10:15:31.812Z,24.94
2022-09-14T10:18:08.346Z,24.91
2022-09-14T10:20:37.238Z,24.81
2022-09-14T10:23:19.190Z,24.62
2022-09-14T10:25:46.075Z,24.39
2022-09-14T10:28:33.671Z,24.26
2022-09-14T10:31:09.435Z,24.20
2022-09-14T10:33:36.949Z,24.16
2022-09-14T10:36:06.573Z,24.13
2022-09-14T10:38:42.617Z,24.21
2022-09-14T10:41:40.102Z,24.31
2022-09-14T10:44:22.849Z,24.49
2022-09-14T10:47:09.277Z,24.53
2022-09-14T10:49:48.263Z,24.57
2022-09-14T10:52:38.108Z,24.67
2022-09-14T10:55:07.315Z,24.66
2022-09-14T10:57:50.941Z,24.57
2022-09-14T11:00:20.240Z,24.50
2022-09-14T11:02:46.765Z,24.54
2022-09-14T11:05:30.727Z,24.76
2022-09-14T11:08:11.623Z,24.92
2022-09-14T11:11:01.187Z,25.06
2022-09-14T11:13:58.162Z,25.19
2022-09-14T11:16:44.348Z,25.35
2022-09-14T11:19:19.392Z,25.46
2022-09-14T11:21:56.782Z,25.58
2022-09-14T11:24:26.744Z,25.69
2022-09-14T11:27:08.821Z,25.66
2022-09-14T11:29:43.123Z,25.71
2022-09-14T11:32:22.051Z,25.67
2022-09-14T11:34:58.222Z,25.69
2022-09-14T11:37:58.375Z,25.64
2022-09-14T11:40:31.967Z,25.66
2022-09-14T11:43:06.030Z,25.78
2022-09-14T11:45:40.212Z,25.81
2022-09-14T11:48:42.714Z,25.80
2022-09-14T11:51:15.478Z,25.75
2022-09-14T11:53:43.724Z,25.62
2022-09-14T11:56:26.870Z,25.52
2022-09-14T11:59:03.605Z,25.52
2022-09-14T12:01:37.692Z,25.59
2022-09-14T12:04:08.839Z,25.64
2022-09-14T12:06:38.371Z,25.67
2022-09-14T12:09:31.882Z,25.59
2022-09-14T12:11:59.095Z,25.57
2022-09-14T12:14:29.595Z,25.50
2022-09-14T12:17:39.281Z,25.50
2022-09-14T12:20:36.732Z,25.43
2022-09-14T12:23:15.288Z,25.45
2022-09-14T12:25:53.318Z,25.57
2022-09-14T12:28:40.686Z,25.77
2022-09-14T12:31:33.031Z,26.10
2022-09-14T12:34:14.415Z,26.30
2022-09-14T12:36:40.877Z,26.51
2022-09-14T12:39:24.858Z,26.55
2022-09-14T12:41:51.329Z,26.56
2022-09-14T12:44:33.135Z,26.52
2022-09-14T12:47:25.434Z,26.48
2022-09-14T12:50:22.856Z,26.46
2022-09-14T12:53:13.534Z,26.38
2022-09-14T12:55:52.623Z,26.28
2022-09-14T12:58:25.525Z,26.20
2022-09-14T13:01:19.115Z,26.13
2022-09-14T13:03:55.020Z,26.13
2022-09-14T13:06:23.988Z,26.18
2022-09-14T13:08:55.524Z,26.21
2022-09-14T13:11:41.324Z,26.23
2022-09-14T13:14:24.070Z,26.21
2022-09-14T13:16:52.382Z,26.20
2022-09-14T13:19:30.866Z,26.17
2022-09-14T13:22:00.107Z,26.22
2022-09-14T13:24:47.786Z,26.25
2022-09-14T13:27:42.193Z,26.36
2022-09-14T13:30:11.725Z,26.45
2022-09-14T13:32:43.376Z,26.50
2022-09-14T13:35:38.924Z,26.48
2022-09-14T13:38:14.131Z,26.50
2022-09-14T13:40:40.759Z,26.50
2022-09-14T13:43:08.016Z,26.48
2022-09-14T13:45:35.249Z,26.49
2022-09-14T13:48:02.374Z,26.56
2022-09-14T13:50:29.042Z,26.54
2022-09-14T13:53:04.144Z,26.50
2022-09-14T13:55:33.933Z,26.45
2022-09-14T13:58:07.624Z,26.42
2022-09-14T14:00:53.797Z,26.42
2022-09-14T14:03:42.272Z,26.36
2022-09-14T14:06:26.040Z,26.26
2022-09-14T14:08:56.823Z,26.18
2022-09-14T14:11:29.122Z,26.17
2022-09-14T14:13:55.947Z,26.12
2022-09-14T14:16:26.525Z,26.09
2022-09-14T14:18:56.174Z,26.09
2022-09-14T14:21:22.788Z,26.18
2022-09-14T14:24:12.044Z,26.22
2022-09-14T14:26:38.432Z,26.30
2022-09-14T14:29:09.683Z,26.42
2022-09-14T14:31:36.224Z,26.57
2022-09-14T14:34:21.171Z,26.94
2022-09-14T14:36:50.002Z,27.23
2022-09-14T14:39:18.696Z,27.52
2022-09-14T14:41:45.579Z,27.67
2022-09-14T14:44:17.585Z,27.61
2022-09-14T14:46:45.652Z,27.55
2022-09-14T14:49:14.112Z,27.51
2022-09-14T14:51:41.226Z,27.51
2022-09-14T14:54:10.303Z,27.90
2022-09-14T14:56:38.538Z,28.35
2022-09-14T14:59:35.729Z,28.71
2022-09-14T15:02:02.511Z,29.33
2022-09-14T15:04:29.087Z,29.74
2022-09-14T15:06:55.720Z,30.01
2022-09-14T15:09:26.113Z,30.22
2022-09-14T15:11:54.685Z,30.27
2022-09-14T15:14:26.743Z,30.51
2022-09-14T15:16:57.927Z,30.79
2022-09-14T15:19:25.008Z,31.08
2022-09-14T15:21:51.711Z,30.96
2022-09-14T15:24:18.250Z,30.95
2022-09-14T15:26:45.071Z,30.28
2022-09-14T15:29:17.652Z,29.65
2022-09-14T15:31:44.474Z,29.14
2022-09-14T15:34:11.026Z,28.82
2022-09-14T15:36:47.953Z,28.48
2022-09-14T15:39:15.140Z,28.75
2022-09-14T15:41:42.483Z,29.04
2022-09-14T15:44:09.555Z,28.83
2022-09-14T15:46:36.457Z,28.49
2022-09-14T15:49:27.441Z,28.18
2022-09-14T15:51:55.843Z,27.87
2022-09-14T15:54:24.650Z,27.61
2022-09-14T15:56:55.027Z,27.35
2022-09-14T15:59:22.344Z,27.14
2022-09-14T16:01:49.558Z,26.94
2022-09-14T16:04:16.770Z,26.82
2022-09-14T16:06:43.510Z,26.73
2022-09-14T16:09:11.825Z,26.62
2022-09-14T16:11:39.745Z,26.57
2022-09-14T16:14:07.858Z,26.52
2022-09-14T16:16:35.311Z,26.43
2022-09-14T16:19:06.591Z,26.41
2022-09-14T16:21:33.374Z,26.40
2022-09-14T16:24:02.464Z,26.46
2022-09-14T16:26:33.531Z,26.99
2022-09-14T16:29:00.666Z,27.34
2022-09-14T16:31:32.807Z,27.39
2022-09-14T16:34:03.594Z,27.36
2022-09-14T16:36:33.273Z,27.40
2022-09-14T16:39:02.243Z,27.35
2022-09-14T16:41:29.655Z,27.27
2022-09-14T16:43:58.223Z,27.21
2022-09-14T16:46:26.960Z,27.17
2022-09-14T16:48:53.777Z,27.09
2022-09-14T16:51:24.037Z,26.98
2022-09-14T16:53:51.758Z,26.86
2022-09-14T16:56:22.236Z,26.75
2022-09-14T16:58:50.787Z,26.64
2022-09-14T17:01:17.299Z,26.51
2022-09-14T17:03:45.766Z,26.41
2022-09-14T17:06:14.675Z,26.25
2022-09-14T17:08:44.022Z,26.12
2022-09-14T17:11:12.095Z,25.98
2022-09-14T17:13:39.591Z,25.91
2022-09-14T17:16:09.144Z,25.81
2022-09-14T17:18:38.838Z,25.68
2022-09-14T17:21:09.241Z,25.54
2022-09-14T17:23:36.242Z,25.42
2022-09-14T17:26:05.600Z,25.34
2022-09-14T17:28:33.308Z,25.30
2022-09-14T17:31:01.416Z,25.21
2022-09-14T17:33:28.835Z,25.13
2022-09-14T17:35:58.356Z,25.06
2022-09-14T17:38:27.552Z,24.95
2022-09-14T17:41:01.845Z,24.52
2022-09-14T17:43:28.417Z,24.11
2022-09-14T17:45:56.809Z,23.82
2022-09-14T17:48:24.782Z,23.61
2022-09-14T17:50:51.607Z,23.49
2022-09-14T17:53:18.311Z,23.33
2022-09-14T17:55:44.931Z,23.18
2022-09-14T17:58:12.374Z,23.10
2022-09-14T18:00:41.152Z,23.06
2022-09-14T18:03:09.373Z,22.98
2022-09-14T18:05:38.901Z,22.93
2022-09-14T18:08:06.609Z,22.88
2022-09-14T18:10:36.091Z,22.78
2022-09-14T18:13:02.660Z,22.71
2022-09-14T18:15:30.989Z,22.62
2022-09-14T18:17:57.840Z,22.42
2022-09-14T18:20:24.406Z,21.77
2022-09-14T18:22:50.963Z,20.75
2022-09-14T18:25:17.687Z,20.23
2022-09-14T18:27:44.196Z,19.99
2022-09-14T18:30:11.201Z,19.83
2022-09-14T18:32:37.801Z,19.74
2022-09-14T18:35:04.751Z,19.69
2022-09-14T18:37:31.383Z,19.69
2022-09-14T18:39:58.097Z,19.67
2022-09-14T18:42:24.677Z,19.66
2022-09-14T18:44:53.927Z,19.69
2022-09-14T18:47:22.429Z,19.72
2022-09-14T18:49:50.033Z,19.79
2022-09-14T18:52:19.413Z,19.88
2022-09-14T18:54:45.960Z,19.90
2022-09-14T18:57:12.596Z,19.89
2022-09-14T18:59:39.154Z,19.86
2022-09-14T19:02:05.820Z,19.83
2022-09-14T19:04:32.457Z,19.78
2022-09-14T19:06:59.042Z,19.76
2022-09-14T19:09:25.893Z,19.76
2022-09-14T19:11:52.444Z,19.81
2022-09-14T19:14:20.615Z,19.83
2022-09-14T19:16:47.319Z,19.86
2022-09-14T19:19:15.320Z,19.88
2022-09-14T19:21:42.765Z,19.90
2022-09-14T19:24:16.805Z,19.88
2022-09-14T19:26:49.264Z,19.90
2022-09-14T19:29:20.051Z,19.92
2022-09-14T19:31:51.001Z,19.93
2022-09-14T19:34:22.811Z,19.94
2022-09-14T19:36:49.928Z,19.96
2022-09-14T19:39:16.548Z,19.98
2022-09-14T19:41:43.138Z,19.98
2022-09-14T19:44:11.099Z,19.98
2022-09-14T19:46:39.775Z,20.00
2022-09-14T19:49:19.826Z,20.00
2022-09-14T19:51:47.179Z,20.00
2022-09-14T19:54:13.975Z,19.99
2022-09-14T19:56:41.243Z,20.02
2022-09-14T19:59:08.625Z,20.03
2022-09-14T20:01:37.523Z,20.05
2022-09-14T20:04:05.701Z,20.03
2022-09-14T20:06:40.213Z,20.01
2022-09-14T20:09:09.908Z,20.00
2022-09-14T20:11:38.304Z,20.01
2022-09-14T20:14:07.207Z,20.02
2022-09-14T20:16:36.421Z,20.04
2022-09-14T20:19:07.269Z,20.08
2022-09-14T20:21:37.510Z,20.11
2022-09-14T20:24:22.000Z,20.15
2022-09-14T20:26:50.372Z,20.20
2022-09-14T20:29:18.563Z,20.25
2022-09-14T20:31:46.004Z,20.28
2022-09-14T20:34:14.124Z,20.30
2022-09-14T20:36:41.290Z,20.29
2022-09-14T20:39:07.891Z,20.29
2022-09-14T20:41:35.756Z,20.29
2022-09-14T20:44:03.555Z,20.26
2022-09-14T20:46:38.673Z,20.21
2022-09-14T20:49:08.651Z,20.15
2022-09-14T20:51:36.768Z,20.10
2022-09-14T20:54:05.117Z,20.07
2022-09-14T20:56:33.819Z,20.07
2022-09-14T20:59:03.665Z,20.07
2022-09-14T21:01:32.830Z,20.07
2022-09-14T21:04:09.086Z,20.07
2022-09-14T21:06:38.278Z,20.07
2022-09-14T21:09:06.535Z,20.09
2022-09-14T21:11:33.637Z,20.10
2022-09-14T21:14:00.562Z,20.12
2022-09-14T21:16:29.963Z,20.15
2022-09-14T21:18:59.015Z,20.17
2022-09-14T21:21:26.736Z,20.18
2022-09-14T21:23:55.870Z,20.18
2022-09-14T21:26:23.225Z,20.20
2022-09-14T21:28:55.556Z,20.18
2022-09-14T21:31:24.105Z,20.18
2022-09-14T21:33:52.756Z,20.23
2022-09-14T21:36:23.668Z,20.23
2022-09-14T21:38:52.215Z,20.20
2022-09-14T21:41:19.963Z,20.21
2022-09-14T21:43:47.158Z,20.22
2022-09-14T21:46:14.624Z,20.23
2022-09-14T21:48:41.875Z,20.24
2022-09-14T21:51:35.794Z,20.23
2022-09-14T21:54:09.216Z,20.25
2022-09-14T21:56:38.529Z,20.23
2022-09-14T21:59:10.500Z,20.23
2022-09-14T22:01:37.391Z,20.15
2022-09-14T22:04:04.879Z,20.16
2022-09-14T22:06:32.648Z,20.16
2022-09-14T22:09:01.076Z,20.15
2022-09-14T22:11:31.492Z,20.15
2022-09-14T22:14:13.153Z,20.12
2022-09-14T22:16:40.520Z,20.12
2022-09-14T22:19:12.564Z,20.14
2022-09-14T22:21:39.431Z,20.08
2022-09-14T22:24:09.860Z,20.14
2022-09-14T22:26:39.649Z,20.15
2022-09-14T22:29:08.776Z,20.16
2022-09-14T22:31:36.959Z,20.16
2022-09-14T22:34:03.499Z,20.13
2022-09-14T22:36:30.075Z,20.10
2022-09-14T22:38:58.674Z,20.10
2022-09-14T22:41:27.402Z,20.11
2022-09-14T22:43:54.757Z,20.09
2022-09-14T22:46:22.833Z,20.09
2022-09-14T22:48:50.656Z,20.09
2022-09-14T22:51:20.404Z,20.08
2022-09-14T22:53:47.403Z,20.04
2022-09-14T22:56:19.316Z,20.04
2022-09-14T22:58:46.437Z,19.95
2022-09-14T23:01:16.868Z,19.95
2022-09-14T23:03:43.916Z,19.96
2022-09-14T23:06:10.760Z,19.92
2022-09-14T23:08:38.179Z,19.89
2022-09-14T23:11:07.299Z,19.87
2022-09-14T23:13:40.621Z,19.86
2022-09-14T23:16:15.500Z,19.84
2022-09-14T23:18:42.942Z,19.82
2022-09-14T23:21:10.060Z,19.82
2022-09-14T23:23:38.367Z,19.81
2022-09-14T23:26:10.782Z,19.82
2022-09-14T23:28:38.119Z,19.81
2022-09-14T23:31:05.894Z,19.81
2022-09-14T23:33:32.844Z,19.79
2022-09-14T23:35:59.427Z,19.79
2022-09-14T23:38:26.517Z,19.78
2022-09-14T23:40:53.186Z,19.77
2022-09-14T23:43:20.240Z,19.74
2022-09-14T23:45:48.200Z,19.73
2022-09-14T23:48:15.661Z,19.69
2022-09-14T23:50:42.295Z,19.68
2022-09-14T23:53:09.059Z,19.66
2022-09-14T23:55:35.663Z,19.65
2022-09-14T23:58:02.468Z,19.64
